Time;durP1;ratioP1;P1;durP2;ratioP2;P2;SDS_P1;SDS_P2;PMS_P1;PMS_P2;Temp;Humidity;BMP_temperature;BMP_pressure;BME280_temperature;BME280_humidity;BME280_pressure;Samples;Min_cycle;Max_cycle;Signal;HPM_P1;HPM_P2
2023/10/12 00:00:36;;;;;;;2.75;2.03;;;;;;;9.57;59.64;94362.16;528419;28;698;-48
2023/10/12 00:00:52;;;;;;;1.95;1.73;;;;;;;9.61;59.59;94359.13;528333;28;867;-49
2023/10/12 00:01:07;;;;;;;1.83;1.63;;;;;;;9.61;59.91;94365.38;528349;28;897;-49
2023/10/12 00:01:26;;;;;;;2.73;1.83;;;;;;;9.64;59.63;94363.56;528419;28;781;-47
2023/10/12 00:02:00;;;;;;;3.92;2.00;;;;;;;9.65;59.55;94370.59;528276;28;1015;-49
2023/10/12 00:02:38;;;;;;;2.47;1.88;;;;;;;9.65;59.52;94365.81;528352;28;819;-48
2023/10/12 00:02:53;;;;;;;2.20;1.83;;;;;;;9.65;59.90;94365.81;527966;28;2108;-49
2023/10/12 00:03:12;;;;;;;2.13;1.93;;;;;;;9.64;59.87;94366.31;528241;28;1112;-49
2023/10/12 00:03:28;;;;;;;3.58;2.38;;;;;;;9.65;59.86;94370.59;528376;28;817;-49
2023/10/12 00:03:44;;;;;;;3.58;2.17;;;;;;;9.62;60.04;94371.63;528297;28;1073;-49
2023/10/12 00:04:06;;;;;;;3.47;2.05;;;;;;;9.59;59.95;94364.41;528370;28;856;-48
2023/10/12 00:04:23;;;;;;;2.65;1.90;;;;;;;9.61;59.77;94367.38;528371;28;975;-50
2023/10/12 00:04:41;;;;;;;2.08;1.80;;;;;;;9.60;60.14;94372.16;528348;28;876;-49
2023/10/12 00:05:18;;;;;;;3.28;2.00;;;;;;;9.57;60.17;94366.94;528458;28;852;-48
2023/10/12 00:05:38;;;;;;;2.20;2.00;;;;;;;9.55;60.23;94363.97;528315;28;920;-48
2023/10/12 00:05:55;;;;;;;2.50;2.30;;;;;;;9.54;60.10;94365.22;528389;28;857;-48
2023/10/12 00:06:13;;;;;;;2.30;2.10;;;;;;;9.52;60.27;94359.47;528280;28;873;-48
2023/10/12 00:06:30;;;;;;;1.85;1.73;;;;;;;9.53;60.41;94361.69;528336;28;880;-49
2023/10/12 00:06:47;;;;;;;2.25;1.75;;;;;;;9.53;60.42;94360.97;528264;28;916;-48
2023/10/12 00:07:09;;;;;;;2.15;1.70;;;;;;;9.54;60.46;94359.69;528369;28;877;-48
2023/10/12 00:07:34;;;;;;;2.30;1.92;;;;;;;9.44;60.47;94345.50;528304;28;913;-50
2023/10/12 00:07:49;;;;;;;3.63;2.03;;;;;;;9.53;60.70;94363.72;528258;28;825;-48
2023/10/12 00:08:10;;;;;;;4.25;1.80;;;;;;;9.51;60.87;94353.19;528318;28;1530;-49
2023/10/12 00:08:34;;;;;;;3.88;2.10;;;;;;;9.54;60.74;94362.44;528374;28;908;-51
2023/10/12 00:08:50;;;;;;;2.60;2.13;;;;;;;9.55;61.07;94367.44;528260;28;912;-49
2023/10/12 00:09:17;;;;;;;2.40;1.93;;;;;;;9.49;61.34;94355.75;528354;28;807;-49
2023/10/12 00:09:32;;;;;;;1.90;1.75;;;;;;;9.49;61.36;94364.00;528426;28;915;-49
2023/10/12 00:10:00;;;;;;;2.53;1.90;;;;;;;9.40;61.63;94347.09;528246;28;1019;-49
2023/10/12 00:10:40;;;;;;;2.13;1.93;;;;;;;9.44;62.14;94361.34;528477;28;647;-48
2023/10/12 00:10:57;;;;;;;2.17;1.63;;;;;;;9.46;62.17;94367.81;528287;28;889;-49
2023/10/12 00:11:12;;;;;;;2.80;1.75;;;;;;;9.21;62.20;94329.75;528414;28;972;-49
2023/10/12 00:11:37;;;;;;;1.90;1.60;;;;;;;9.46;62.26;94362.31;528339;28;797;-49
2023/10/12 00:11:57;;;;;;;2.20;1.85;;;;;;;9.42;62.52;94355.59;528314;28;964;-49
2023/10/12 00:12:14;;;;;;;1.98;1.73;;;;;;;9.44;62.29;94364.09;528332;28;854;-48
2023/10/12 00:12:29;;;;;;;1.98;1.70;;;;;;;9.43;62.35;94357.06;528318;28;868;-49
2023/10/12 00:12:46;;;;;;;2.17;1.80;;;;;;;9.29;62.46;94342.44;528362;28;918;-48
2023/10/12 00:13:01;;;;;;;2.53;1.77;;;;;;;9.40;62.67;94358.84;528331;28;936;-49
2023/10/12 00:13:20;;;;;;;2.60;1.73;;;;;;;9.36;62.45;94352.88;528349;28;962;-48
2023/10/12 00:13:41;;;;;;;2.58;1.73;;;;;;;9.40;62.51;94356.09;528294;28;956;-49
2023/10/12 00:13:56;;;;;;;2.30;1.58;;;;;;;9.36;62.86;94350.13;528256;28;903;-48
2023/10/12 00:14:14;;;;;;;2.77;1.60;;;;;;;9.42;62.59;94356.31;528374;28;884;-48
2023/10/12 00:14:32;;;;;;;2.47;1.80;;;;;;;9.43;62.47;94354.31;528257;28;885;-49
2023/10/12 00:14:48;;;;;;;2.25;2.05;;;;;;;9.44;62.63;94353.78;528313;28;865;-49
2023/10/12 00:15:16;;;;;;;2.10;1.95;;;;;;;9.46;62.60;94356.03;528338;28;814;-48
2023/10/12 00:15:38;;;;;;;4.18;2.22;;;;;;;9.23;62.62;94325.22;528346;28;912;-48
2023/10/12 00:15:55;;;;;;;4.32;1.98;;;;;;;9.47;62.73;94361.03;528381;28;823;-48
2023/10/12 00:16:11;;;;;;;2.60;2.17;;;;;;;9.48;62.88;94356.25;528294;28;900;-50
2023/10/12 00:16:26;;;;;;;2.58;2.20;;;;;;;9.47;62.65;94357.50;528307;28;865;-49
2023/10/12 00:16:43;;;;;;;1.83;1.67;;;;;;;9.46;62.61;94356.03;526100;28;1167;-48
2023/10/12 00:16:59;;;;;;;2.75;1.70;;;;;;;9.45;62.65;94349.78;525899;28;896;-50
2023/10/12 00:17:16;;;;;;;3.35;1.90;;;;;;;9.45;62.71;94349.78;525965;28;857;-48
2023/10/12 00:17:33;;;;;;;2.75;1.90;;;;;;;9.47;62.71;94352.00;524019;28;1245;-49
2023/10/12 00:17:53;;;;;;;2.90;1.80;;;;;;;9.46;62.70;94345.00;523890;28;984;-51
2023/10/12 00:18:08;;;;;;;2.97;1.73;;;;;;;9.49;62.94;94349.47;523972;28;822;-48
2023/10/12 00:18:24;;;;;;;2.93;1.80;;;;;;;9.49;62.72;94346.72;524019;28;819;-48
2023/10/12 00:18:39;;;;;;;1.80;1.70;;;;;;;9.45;62.61;94347.03;525499;28;1951;-48
2023/10/12 00:18:54;;;;;;;1.80;1.67;;;;;;;9.43;62.83;94340.53;526055;28;904;-48
2023/10/12 00:19:12;;;;;;;2.27;1.63;;;;;;;9.45;62.83;94344.25;526006;28;845;-48
2023/10/12 00:19:28;;;;;;;2.35;1.70;;;;;;;9.47;62.88;94346.50;527474;28;837;-48
2023/10/12 00:19:44;;;;;;;1.95;1.80;;;;;;;9.46;62.66;94339.50;528336;28;884;-50
2023/10/12 00:19:59;;;;;;;1.80;1.67;;;;;;;9.48;62.96;94342.47;528290;28;861;-50
2023/10/12 00:20:50;;;;;;;2.35;1.73;;;;;;;9.50;62.74;94350.97;528372;28;860;-49
2023/10/12 00:21:14;;;;;;;2.70;1.88;;;;;;;9.50;62.66;94345.47;528303;28;896;-48
2023/10/12 00:21:35;;;;;;;1.90;1.70;;;;;;;9.51;62.59;94352.44;528250;28;944;-50
2023/10/12 00:21:58;;;;;;;1.70;1.60;;;;;;;9.41;62.68;94332.78;528264;28;927;-49
2023/10/12 00:22:15;;;;;;;1.83;1.67;;;;;;;9.46;62.60;94348.53;528356;28;959;-48
2023/10/12 00:22:30;;;;;;;2.90;1.65;;;;;;;9.48;63.01;94354.25;530180;27;1094;-49
2023/10/12 00:22:46;;;;;;;2.90;1.70;;;;;;;9.50;62.66;94351.72;530453;27;781;-49
2023/10/12 00:23:14;;;;;;;1.63;1.53;;;;;;;9.47;62.89;94347.25;530470;27;777;-49
2023/10/12 00:23:33;;;;;;;5.00;1.85;;;;;;;9.47;62.82;94350.00;530065;27;1173;-48
2023/10/12 00:23:51;;;;;;;2.67;2.00;;;;;;;9.49;62.89;94349.47;528284;28;802;-49
2023/10/12 00:24:07;;;;;;;2.80;1.80;;;;;;;9.50;62.54;94345.47;527686;28;1109;-50
2023/10/12 00:24:23;;;;;;;2.60;1.80;;;;;;;9.49;62.63;94350.22;529639;27;1205;-48
2023/10/12 00:24:38;;;;;;;1.85;1.75;;;;;;;9.53;62.68;94352.69;530397;27;825;-48
2023/10/12 00:24:54;;;;;;;1.97;1.80;;;;;;;9.52;62.48;94345.69;530372;27;892;-49
2023/10/12 00:25:09;;;;;;;2.30;1.90;;;;;;;9.53;62.61;94349.94;530431;27;931;-49
2023/10/12 00:25:25;;;;;;;2.27;1.60;;;;;;;9.54;62.37;94351.44;530438;27;893;-50
2023/10/12 00:25:54;;;;;;;1.83;1.42;;;;;;;9.52;62.15;94343.69;530359;27;913;-48
2023/10/12 00:26:09;;;;;;;2.13;1.80;;;;;;;9.52;62.42;94345.69;530270;27;1657;-48
2023/10/12 00:26:24;;;;;;;2.40;1.85;;;;;;;9.53;62.34;94345.16;530435;27;905;-51
2023/10/12 00:26:42;;;;;;;1.97;1.73;;;;;;;9.52;62.39;94334.66;530418;27;797;-49
2023/10/12 00:26:58;;;;;;;2.60;1.70;;;;;;;9.47;62.15;94332.72;530411;27;872;-49
2023/10/12 00:27:14;;;;;;;2.60;1.80;;;;;;;9.56;62.41;94338.63;530373;27;983;-49
2023/10/12 00:27:30;;;;;;;2.00;1.80;;;;;;;9.57;62.33;94345.59;530382;27;1023;-49
2023/10/12 00:27:47;;;;;;;1.95;1.80;;;;;;;9.50;62.46;94326.91;530484;27;1067;-49
2023/10/12 00:28:03;;;;;;;1.88;1.70;;;;;;;9.56;62.22;94346.13;530453;27;1154;-48
2023/10/12 00:28:21;;;;;;;3.13;1.88;;;;;;;9.59;61.92;94345.84;530298;27;931;-48
2023/10/12 00:28:38;;;;;;;4.35;2.00;;;;;;;9.60;61.99;94343.81;530431;27;856;-49
2023/10/12 00:28:55;;;;;;;2.53;1.70;;;;;;;9.61;61.79;94353.59;530401;27;964;-49
2023/10/12 00:29:12;;;;;;;3.00;1.80;;;;;;;9.61;62.03;94342.56;530376;27;1118;-48
2023/10/12 00:29:28;;;;;;;2.97;1.95;;;;;;;9.38;61.84;94314.53;530398;27;900;-48
2023/10/12 00:29:48;;;;;;;2.27;2.00;;;;;;;9.53;61.60;94330.66;530447;27;1520;-49
2023/10/12 00:30:04;;;;;;;2.63;2.00;;;;;;;9.61;61.42;94346.06;530378;27;880;-51
2023/10/12 00:30:20;;;;;;;2.67;1.67;;;;;;;9.52;61.53;94326.38;530359;27;874;-48
2023/10/12 00:30:36;;;;;;;3.63;1.75;;;;;;;9.62;61.77;94341.28;528132;28;944;-48
2023/10/12 00:30:55;;;;;;;3.87;1.77;;;;;;;9.62;61.39;94342.03;528142;28;907;-48
2023/10/12 00:31:19;;;;;;;2.38;1.70;;;;;;;9.61;61.51;94340.56;528140;28;990;-49
2023/10/12 00:31:38;;;;;;;2.08;1.50;;;;;;;9.57;61.51;94339.38;528210;28;915;-50
2023/10/12 00:31:55;;;;;;;1.92;1.65;;;;;;;9.55;61.67;94333.63;528109;28;923;-47
2023/10/12 00:32:13;;;;;;;1.83;1.55;;;;;;;9.54;61.29;94330.13;528197;28;900;-49
2023/10/12 00:32:28;;;;;;;1.60;1.50;;;;;;;9.61;61.52;94337.81;529251;27;907;-48
2023/10/12 00:32:44;;;;;;;1.70;1.60;;;;;;;9.63;61.36;94337.28;530452;27;851;-49
2023/10/12 00:32:59;;;;;;;1.67;1.58;;;;;;;9.60;61.28;94335.56;530452;27;793;-48
2023/10/12 00:33:14;;;;;;;1.60;1.50;;;;;;;9.64;61.24;94341.50;530444;27;995;-48
2023/10/12 00:33:30;;;;;;;2.03;1.75;;;;;;;9.64;61.22;94336.75;530483;27;840;-50
2023/10/12 00:33:49;;;;;;;3.37;1.77;;;;;;;9.63;61.28;94340.78;530400;27;817;-49
2023/10/12 00:34:04;;;;;;;2.97;1.52;;;;;;;9.57;61.02;94334.56;530426;27;889;-48
2023/10/12 00:34:23;;;;;;;2.80;1.75;;;;;;;9.61;60.71;94337.06;530471;27;861;-48
2023/10/12 00:34:47;;;;;;;2.95;1.77;;;;;;;9.63;60.69;94340.03;530355;27;892;-49
2023/10/12 00:35:04;;;;;;;2.42;1.98;;;;;;;9.63;60.54;94340.78;530391;27;881;-49
2023/10/12 00:35:19;;;;;;;1.75;1.58;;;;;;;9.64;60.70;94339.50;528961;27;2389;-48
2023/10/12 00:35:39;;;;;;;2.17;1.53;;;;;;;9.63;60.51;94335.28;528295;28;889;-49
2023/10/12 00:36:04;;;;;;;3.60;1.98;;;;;;;9.65;60.55;94341.00;528294;28;923;-48
2023/10/12 00:36:21;;;;;;;3.78;1.85;;;;;;;9.66;60.65;94342.50;528263;28;910;-48
2023/10/12 00:36:37;;;;;;;3.45;1.80;;;;;;;9.66;60.64;94336.97;528248;28;929;-48
2023/10/12 00:36:52;;;;;;;1.92;1.70;;;;;;;9.65;60.25;94335.50;528382;28;836;-48
2023/10/12 00:37:08;;;;;;;1.90;1.80;;;;;;;9.64;60.41;94331.22;528232;28;824;-48
2023/10/12 00:37:23;;;;;;;4.32;1.90;;;;;;;9.68;60.12;94339.22;528331;28;932;-49
2023/10/12 00:37:41;;;;;;;4.63;1.88;;;;;;;9.64;60.34;94333.25;528321;28;867;-51
2023/10/12 00:38:01;;;;;;;1.90;1.70;;;;;;;9.67;60.09;94332.97;528233;28;869;-49
2023/10/12 00:38:23;;;;;;;1.70;1.60;;;;;;;9.63;60.28;94329.00;528217;28;942;-49
2023/10/12 00:38:39;;;;;;;1.73;1.63;;;;;;;9.60;60.16;94341.06;528154;28;1913;-49
2023/10/12 00:38:59;;;;;;;2.20;1.90;;;;;;;9.57;60.21;94337.34;528252;28;895;-49
2023/10/12 00:39:14;;;;;;;2.28;2.03;;;;;;;9.60;60.12;94335.56;528355;28;907;-49
2023/10/12 00:39:43;;;;;;;2.13;1.90;;;;;;;9.60;60.14;94333.53;528236;28;1167;-49
2023/10/12 00:40:21;;;;;;;2.13;1.98;;;;;;;9.60;60.50;94336.31;528192;28;1120;-49
2023/10/12 00:40:34;;;;;;;2.00;1.50;;;;;;;9.54;60.17;94321.09;528072;28;1392;-50
2023/10/12 00:40:57;;;;;;;1.97;1.50;;;;;;;9.60;60.13;94330.78;528217;28;864;-50
2023/10/12 00:41:17;;;;;;;2.42;1.77;;;;;;;9.35;60.19;94295.53;528272;28;936;-48
2023/10/12 00:41:36;;;;;;;2.55;1.80;;;;;;;9.54;60.20;94321.84;528270;28;880;-49
2023/10/12 00:41:51;;;;;;;1.92;1.73;;;;;;;9.60;60.11;94327.28;528235;28;963;-49
2023/10/12 00:42:07;;;;;;;2.38;2.08;;;;;;;9.61;59.76;94328.78;528291;28;884;-48
2023/10/12 00:42:25;;;;;;;2.97;2.23;;;;;;;9.60;59.73;94330.03;528246;28;808;-50
2023/10/12 00:42:44;;;;;;;2.80;2.15;;;;;;;9.62;59.93;94330.25;525984;28;1239;-48
2023/10/12 00:43:02;;;;;;;2.22;2.00;;;;;;;9.61;59.59;94329.53;525976;28;1116;-49
2023/10/12 00:43:20;;;;;;;2.08;1.80;;;;;;;9.63;59.63;94331.75;525969;28;916;-50
2023/10/12 00:43:49;;;;;;;2.53;1.80;;;;;;;9.65;59.84;94337.50;526054;28;848;-48
2023/10/12 00:44:26;;;;;;;2.58;1.90;;;;;;;9.62;59.50;94335.78;526060;28;619;-48
2023/10/12 00:44:41;;;;;;;2.13;1.92;;;;;;;9.49;59.64;94333.69;528318;28;813;-48
2023/10/12 00:44:57;;;;;;;2.10;1.90;;;;;;;9.49;59.60;94336.44;528232;28;859;-48
2023/10/12 00:45:19;;;;;;;2.15;1.80;;;;;;;9.49;59.42;94341.19;528349;28;820;-49
2023/10/12 00:45:34;;;;;;;2.10;1.80;;;;;;;9.37;59.60;94328.84;528345;28;877;-49
2023/10/12 00:45:50;;;;;;;2.80;1.90;;;;;;;9.34;59.93;94336.13;528230;28;1007;-48
2023/10/12 00:46:32;;;;;;;3.10;2.00;;;;;;;9.36;59.76;94330.09;528249;28;931;-48
2023/10/12 00:47:18;;;;;;;3.47;2.15;;;;;;;9.40;59.72;94331.28;528327;28;674;-48
2023/10/12 00:47:48;;;;;;;2.90;2.60;;;;;;;9.43;59.86;94340.53;528280;28;948;-48
2023/10/12 00:48:07;;;;;;;8.57;3.40;;;;;;;9.44;59.77;94336.53;528228;28;959;-48
2023/10/12 00:48:29;;;;;;;5.75;3.17;;;;;;;9.43;59.37;94330.25;528274;28;900;-49
2023/10/12 00:49:34;;;;;;;6.50;3.38;;;;;;;9.47;58.79;94336.22;517625;28;1206;-49
2023/10/12 00:49:49;;;;;;;6.30;3.90;;;;;;;9.47;59.09;94332.72;517583;28;1372;-49
2023/10/12 00:50:11;;;;;;;5.63;3.60;;;;;;;9.46;58.86;94334.75;515638;28;806;-49
2023/10/12 00:50:29;;;;;;;7.15;4.22;;;;;;;9.48;58.82;94336.97;515585;28;1082;-49
2023/10/12 00:50:45;;;;;;;6.30;5.07;;;;;;;9.41;58.78;94335.53;521306;28;1053;-51
2023/10/12 00:51:00;;;;;;;7.80;5.40;;;;;;;9.39;58.89;94331.81;523834;28;928;-48
2023/10/12 00:51:16;;;;;;;9.02;5.25;;;;;;;9.38;59.29;94322.03;521902;28;877;-49
2023/10/12 00:51:33;;;;;;;9.02;5.18;;;;;;;9.40;58.95;94328.53;519806;28;1351;-49
2023/10/12 00:51:54;;;;;;;8.68;4.85;;;;;;;9.33;59.09;94325.63;517738;28;900;-49
2023/10/12 00:52:13;;;;;;;8.68;5.13;;;;;;;9.32;59.17;94332.41;519830;28;892;-48
2023/10/12 00:52:35;;;;;;;7.30;4.50;;;;;;;9.30;58.96;94324.66;519650;28;994;-49
2023/10/12 00:52:55;;;;;;;9.02;4.97;;;;;;;9.24;59.14;94315.72;520430;28;933;-49
2023/10/12 00:53:22;;;;;;;7.40;4.50;;;;;;;9.32;58.73;94327.63;521399;28;1190;-48
2023/10/12 00:53:37;;;;;;;8.18;4.35;;;;;;;9.36;58.82;94336.34;526620;28;869;-49
2023/10/12 00:53:55;;;;;;;7.20;3.67;;;;;;;9.34;58.85;94329.88;528075;28;896;-50
2023/10/12 00:54:11;;;;;;;7.80;4.25;;;;;;;9.34;58.99;94329.88;526070;28;813;-49
2023/10/12 00:54:41;;;;;;;8.38;4.32;;;;;;;9.33;59.08;94325.63;526036;28;864;-49
2023/10/12 00:54:57;;;;;;;6.22;4.18;;;;;;;9.36;59.11;94330.84;524482;28;917;-49
2023/10/12 00:55:22;;;;;;;7.53;3.93;;;;;;;9.35;59.02;94328.59;523931;28;893;-49
2023/10/12 00:55:37;;;;;;;4.90;3.40;;;;;;;9.34;59.41;94325.09;523852;28;916;-47
2023/10/12 00:55:55;;;;;;;3.85;3.03;;;;;;;9.31;59.16;94317.91;523916;28;944;-49
2023/10/12 00:56:11;;;;;;;4.72;3.20;;;;;;;9.32;58.78;94324.88;523820;28;896;-48
2023/10/12 00:56:28;;;;;;;4.40;3.10;;;;;;;9.32;58.76;94327.63;523885;28;912;-48
2023/10/12 00:56:43;;;;;;;3.97;2.83;;;;;;;9.33;58.94;94331.91;523836;28;865;-49
2023/10/12 00:57:02;;;;;;;3.90;2.70;;;;;;;9.32;58.73;94327.63;523872;28;849;-49
2023/10/12 00:57:17;;;;;;;3.80;2.83;;;;;;;9.31;58.89;94317.91;523854;28;895;-50
2023/10/12 00:57:33;;;;;;;4.55;3.03;;;;;;;9.31;58.65;94323.41;523960;28;825;-48
2023/10/12 00:57:50;;;;;;;4.72;2.72;;;;;;;9.32;58.86;94335.16;523842;28;825;-47
2023/10/12 00:58:08;;;;;;;4.27;2.70;;;;;;;9.32;58.63;94329.63;525633;28;801;-49
2023/10/12 00:58:24;;;;;;;3.17;2.70;;;;;;;9.29;58.82;94322.44;525980;28;937;-48
2023/10/12 00:58:39;;;;;;;3.27;2.50;;;;;;;9.31;58.76;94323.41;527496;28;1985;-47
2023/10/12 00:58:55;;;;;;;3.83;2.40;;;;;;;9.24;58.83;94310.19;529609;27;812;-49
2023/10/12 00:59:12;;;;;;;4.10;2.92;;;;;;;9.32;58.60;94326.88;530406;27;848;-50
2023/10/12 00:59:32;;;;;;;3.47;3.00;;;;;;;9.33;58.64;94331.13;530302;27;1588;-48
2023/10/12 00:59:50;;;;;;;2.85;2.47;;;;;;;9.32;58.80;94330.38;530305;27;928;-49
2023/10/12 01:00:15;;;;;;;2.75;2.30;;;;;;;9.32;58.38;94329.63;530330;27;928;-48
2023/10/12 01:00:35;;;;;;;3.17;2.50;;;;;;;9.34;58.51;94329.88;530340;27;885;-48
2023/10/12 01:00:54;;;;;;;3.25;2.53;;;;;;;9.33;58.51;94328.38;530347;27;965;-48
2023/10/12 01:01:09;;;;;;;3.30;2.42;;;;;;;9.32;58.31;94321.38;530334;27;900;-49
2023/10/12 01:01:25;;;;;;;3.80;2.70;;;;;;;9.30;58.32;94321.16;530406;27;888;-48
2023/10/12 01:01:40;;;;;;;2.70;2.37;;;;;;;9.30;58.30;94316.38;530363;27;848;-49
2023/10/12 01:01:55;;;;;;;2.90;2.20;;;;;;;9.29;58.32;94320.41;530304;27;943;-49
2023/10/12 01:02:12;;;;;;;3.97;2.22;;;;;;;9.29;58.52;94316.91;530323;27;884;-49
2023/10/12 01:02:33;;;;;;;4.30;2.75;;;;;;;9.27;58.52;94317.41;530205;27;936;-49
2023/10/12 01:03:07;;;;;;;4.93;3.15;;;;;;;9.23;58.48;94316.97;530372;27;872;-49
2023/10/12 01:03:45;;;;;;;3.75;2.85;;;;;;;9.21;58.44;94318.75;530455;27;852;-48
2023/10/12 01:04:01;;;;;;;3.67;3.17;;;;;;;9.19;58.74;94322.03;530348;27;845;-48
2023/10/12 01:04:17;;;;;;;5.53;3.25;;;;;;;9.20;58.46;94325.53;530371;27;868;-49
2023/10/12 01:04:32;;;;;;;7.03;3.10;;;;;;;9.21;58.29;94318.75;530340;27;865;-48
2023/10/12 01:04:48;;;;;;;4.82;3.00;;;;;;;9.20;58.60;94320.78;530318;27;935;-48
2023/10/12 01:05:04;;;;;;;3.97;3.03;;;;;;;9.19;58.48;94322.03;530369;27;797;-48
2023/10/12 01:05:22;;;;;;;4.13;3.05;;;;;;;8.94;58.69;94285.50;530313;27;836;-48
2023/10/12 01:05:37;;;;;;;3.22;2.72;;;;;;;9.18;58.55;94320.56;530350;27;797;-48
2023/10/12 01:06:47;;;;;;;5.45;3.15;;;;;;;9.14;58.66;94315.31;530405;27;1091;-49
2023/10/12 01:07:06;;;;;;;3.55;2.67;;;;;;;9.14;58.76;94320.81;530284;27;880;-49
2023/10/12 01:07:34;;;;;;;3.85;2.97;;;;;;;9.13;58.70;94313.84;530345;27;967;-48
2023/10/12 01:07:49;;;;;;;3.00;2.65;;;;;;;9.14;58.93;94317.31;530267;27;974;-49
2023/10/12 01:08:05;;;;;;;5.83;2.60;;;;;;;9.14;58.80;94314.56;530291;27;853;-49
2023/10/12 01:08:20;;;;;;;7.78;3.35;;;;;;;9.13;59.05;94324.09;530341;27;892;-48
2023/10/12 01:08:46;;;;;;;6.88;3.75;;;;;;;9.11;59.10;94310.84;530320;27;877;-49
2023/10/12 01:09:18;;;;;;;6.40;3.42;;;;;;;9.09;59.08;94309.88;530301;27;896;-48
2023/10/12 01:09:39;;;;;;;3.53;3.22;;;;;;;9.06;59.24;94314.41;528234;28;1058;-48
2023/10/12 01:10:03;;;;;;;3.95;3.08;;;;;;;8.97;59.10;94300.22;528210;28;884;-49
2023/10/12 01:10:27;;;;;;;3.92;3.13;;;;;;;9.02;59.22;94308.44;528181;28;983;-50
2023/10/12 01:10:43;;;;;;;3.00;2.70;;;;;;;8.79;59.29;94278.91;526029;28;869;-49
2023/10/12 01:11:04;;;;;;;3.20;2.88;;;;;;;9.03;59.18;94317.47;525849;28;1134;-48
2023/10/12 01:11:37;;;;;;;4.25;2.45;;;;;;;9.02;59.18;94315.97;526076;28;812;-48
2023/10/12 01:11:58;;;;;;;3.42;2.60;;;;;;;9.01;58.98;94314.47;525905;28;964;-48
2023/10/12 01:12:13;;;;;;;2.97;2.65;;;;;;;9.00;59.22;94316.50;525946;28;911;-48
2023/10/12 01:12:31;;;;;;;4.13;2.70;;;;;;;8.99;59.03;94315.00;527303;28;1114;-49
2023/10/12 01:12:46;;;;;;;3.65;2.67;;;;;;;8.94;58.91;94306.78;528167;28;872;-47
2023/10/12 01:13:02;;;;;;;3.60;2.70;;;;;;;8.98;59.05;94313.50;528261;28;836;-48
2023/10/12 01:13:17;;;;;;;3.85;2.70;;;;;;;8.95;59.10;94308.28;528163;28;861;-50
2023/10/12 01:13:33;;;;;;;2.90;2.60;;;;;;;8.97;58.89;94309.25;528297;28;809;-49
2023/10/12 01:14:03;;;;;;;3.03;2.40;;;;;;;8.83;58.73;94299.41;528221;28;804;-49
2023/10/12 01:14:18;;;;;;;3.13;2.40;;;;;;;8.94;58.86;94318.53;528151;28;965;-48
2023/10/12 01:14:33;;;;;;;3.20;2.30;;;;;;;8.93;58.56;94310.81;528248;28;861;-48
2023/10/12 01:14:49;;;;;;;3.73;2.10;;;;;;;8.93;58.67;94310.81;528175;28;801;-48
2023/10/12 01:15:10;;;;;;;4.13;2.10;;;;;;;8.92;58.66;94310.03;528187;28;869;-48
2023/10/12 01:15:30;;;;;;;2.80;1.88;;;;;;;8.90;58.62;94312.56;528144;28;885;-49
2023/10/12 01:15:47;;;;;;;2.65;1.90;;;;;;;8.89;58.63;94311.09;528260;28;999;-49
2023/10/12 01:16:23;;;;;;;4.00;2.20;;;;;;;8.89;58.85;94308.34;528234;28;908;-48
2023/10/12 01:17:03;;;;;;;2.55;1.98;;;;;;;8.84;58.95;94308.38;528174;28;734;-50
2023/10/12 01:17:25;;;;;;;2.72;2.13;;;;;;;8.85;58.96;94307.88;528115;28;928;-48
2023/10/12 01:17:41;;;;;;;3.15;2.40;;;;;;;8.73;59.23;94289.97;528175;28;841;-48
2023/10/12 01:17:56;;;;;;;2.75;2.20;;;;;;;8.82;59.17;94308.91;528157;28;1632;-48
2023/10/12 01:18:12;;;;;;;3.37;2.10;;;;;;;8.82;59.40;94305.41;528286;28;868;-50
2023/10/12 01:18:28;;;;;;;6.38;2.70;;;;;;;8.82;59.24;94316.41;528121;28;897;-49
2023/10/12 01:18:45;;;;;;;5.95;2.65;;;;;;;8.82;59.11;94313.66;528141;28;1930;-47
2023/10/12 01:19:05;;;;;;;2.85;2.22;;;;;;;8.81;59.18;94303.94;528230;28;889;-48
2023/10/12 01:19:22;;;;;;;3.40;2.30;;;;;;;8.81;59.44;94314.94;528203;28;1069;-50
2023/10/12 01:19:44;;;;;;;4.70;2.72;;;;;;;8.80;59.45;94314.19;528194;28;910;-49
2023/10/12 01:20:10;;;;;;;5.03;2.42;;;;;;;8.81;59.11;94301.94;528110;28;934;-47
2023/10/12 01:20:26;;;;;;;2.40;2.00;;;;;;;8.56;59.14;94277.63;528237;28;849;-47
2023/10/12 01:20:41;;;;;;;2.20;2.00;;;;;;;8.80;59.19;94310.69;528210;28;802;-50
2023/10/12 01:20:58;;;;;;;2.27;2.03;;;;;;;8.81;59.28;94312.19;528141;28;939;-49
2023/10/12 01:21:13;;;;;;;2.13;1.92;;;;;;;8.80;59.36;94313.44;528177;28;940;-49
2023/10/12 01:21:28;;;;;;;2.57;1.97;;;;;;;8.74;59.20;94302.50;528209;28;844;-48
2023/10/12 01:21:44;;;;;;;3.50;1.93;;;;;;;8.80;59.33;94314.19;528339;28;812;-49
2023/10/12 01:22:13;;;;;;;3.28;1.92;;;;;;;8.79;59.48;94304.44;528126;28;852;-49
2023/10/12 01:22:31;;;;;;;2.63;2.42;;;;;;;8.76;59.64;94312.97;529653;27;1106;-49
2023/10/12 01:22:47;;;;;;;4.07;2.60;;;;;;;8.71;59.88;94314.53;530259;27;833;-48
2023/10/12 01:23:03;;;;;;;3.97;2.22;;;;;;;8.71;59.84;94316.53;530343;27;797;-51
2023/10/12 01:23:18;;;;;;;3.13;2.30;;;;;;;8.70;59.55;94310.31;530287;27;877;-49
2023/10/12 01:23:35;;;;;;;3.20;2.70;;;;;;;8.64;59.87;94304.09;529403;27;1161;-49
2023/10/12 01:23:51;;;;;;;3.08;2.75;;;;;;;8.71;59.60;94311.78;528218;28;850;-49
2023/10/12 01:24:12;;;;;;;3.38;2.58;;;;;;;8.70;59.89;94310.31;527583;28;1184;-50
2023/10/12 01:24:30;;;;;;;4.30;2.40;;;;;;;8.71;59.69;94305.50;530199;27;1336;-49
2023/10/12 01:25:12;;;;;;;4.75;2.60;;;;;;;8.69;59.96;94302.53;530363;27;813;-48
2023/10/12 01:25:34;;;;;;;4.10;2.70;;;;;;;8.74;59.67;94310.75;530336;27;945;-48
2023/10/12 01:25:49;;;;;;;2.50;2.30;;;;;;;8.76;59.68;94312.97;530308;27;812;-48
2023/10/12 01:26:10;;;;;;;2.20;2.00;;;;;;;8.75;59.64;94308.75;530159;27;1111;-49
2023/10/12 01:26:26;;;;;;;4.05;2.50;;;;;;;8.77;59.65;94315.22;530272;27;904;-48
2023/10/12 01:26:48;;;;;;;4.47;2.58;;;;;;;8.77;59.77;94315.22;530354;27;879;-48
2023/10/12 01:27:04;;;;;;;3.95;2.65;;;;;;;8.73;59.62;94309.25;530325;27;919;-48
2023/10/12 01:27:21;;;;;;;4.22;2.72;;;;;;;8.63;59.72;94288.84;530342;27;828;-50
2023/10/12 01:27:41;;;;;;;2.53;2.33;;;;;;;8.77;59.81;94308.97;530360;28;808;-48
2023/10/12 01:28:00;;;;;;;1.95;1.80;;;;;;;8.78;59.40;94302.19;530197;27;952;-48
2023/10/12 01:28:16;;;;;;;4.43;2.15;;;;;;;8.78;59.19;94310.47;530388;27;938;-48
2023/10/12 01:28:32;;;;;;;5.27;2.43;;;;;;;8.76;59.42;94312.97;530297;27;848;-49
2023/10/12 01:28:50;;;;;;;3.95;2.45;;;;;;;8.75;59.19;94311.50;530289;27;1003;-49
2023/10/12 01:29:10;;;;;;;3.80;2.08;;;;;;;8.74;59.25;94308.00;530293;28;916;-48
2023/10/12 01:29:26;;;;;;;2.80;1.80;;;;;;;8.72;58.88;94302.28;530346;27;821;-48
2023/10/12 01:29:41;;;;;;;3.30;2.10;;;;;;;8.74;59.04;94304.50;530291;27;1094;-49
2023/10/12 01:30:13;;;;;;;4.03;2.40;;;;;;;8.75;58.95;94312.22;530327;27;884;-49
2023/10/12 01:30:29;;;;;;;2.15;1.95;;;;;;;8.73;58.75;94309.25;530296;28;887;-48
2023/10/12 01:30:44;;;;;;;2.45;1.65;;;;;;;8.69;58.64;94305.28;530386;27;848;-50
2023/10/12 01:31:01;;;;;;;4.00;2.17;;;;;;;8.72;58.87;94307.03;530246;27;892;-49
2023/10/12 01:31:26;;;;;;;4.68;2.63;;;;;;;8.71;58.95;94311.78;530281;27;884;-48
2023/10/12 01:31:46;;;;;;;3.72;2.50;;;;;;;8.68;58.63;94307.31;528219;28;892;-49
2023/10/12 01:32:27;;;;;;;3.05;2.08;;;;;;;8.69;58.84;94306.03;525971;28;950;-49
2023/10/12 01:32:43;;;;;;;3.20;2.08;;;;;;;8.68;58.76;94310.06;525922;28;849;-48
2023/10/12 01:32:58;;;;;;;3.43;2.40;;;;;;;8.70;59.14;94306.78;525829;28;919;-49
2023/10/12 01:33:14;;;;;;;2.72;2.15;;;;;;;8.62;59.00;94298.34;525959;28;952;-48
2023/10/12 01:33:30;;;;;;;3.70;2.20;;;;;;;8.57;58.94;94296.41;525906;28;862;-49
2023/10/12 01:33:50;;;;;;;3.50;2.50;;;;;;;8.66;58.84;94304.34;526359;28;868;-48
2023/10/12 01:34:06;;;;;;;2.47;2.03;;;;;;;8.66;59.04;94309.84;528215;28;884;-48
2023/10/12 01:34:24;;;;;;;2.40;1.90;;;;;;;8.65;58.76;94308.34;528180;28;1187;-48
2023/10/12 01:34:44;;;;;;;2.97;2.20;;;;;;;8.66;58.89;94303.59;528110;28;896;-49
2023/10/12 01:35:04;;;;;;;4.72;2.50;;;;;;;8.67;58.76;94302.31;528031;28;932;-49
2023/10/12 01:35:26;;;;;;;5.38;2.40;;;;;;;8.64;58.98;94304.09;528062;28;892;-49
2023/10/12 01:35:48;;;;;;;4.30;2.88;;;;;;;8.66;59.11;94307.09;528131;28;935;-49
2023/10/12 01:36:04;;;;;;;4.47;3.17;;;;;;;8.64;59.17;94306.09;528171;28;888;-48
2023/10/12 01:36:27;;;;;;;3.83;3.15;;;;;;;8.37;59.28;94264.56;528107;28;865;-49
2023/10/12 01:36:44;;;;;;;4.45;3.15;;;;;;;8.61;59.22;94302.38;528104;28;949;-48
2023/10/12 01:37:02;;;;;;;5.40;3.40;;;;;;;8.59;59.20;94304.16;528100;28;837;-49
2023/10/12 01:37:26;;;;;;;5.72;3.60;;;;;;;8.56;59.22;94305.16;528132;28;880;-50
2023/10/12 01:37:55;;;;;;;6.05;3.28;;;;;;;8.47;59.57;94297.25;528212;28;927;-49